sensor_id;sensor_type;location;lat;lon;timestamp;pressure;altitude;pressure_sealevel;temperature;humidity
53689;BME280;39583;54.682;30.662;2023-02-10T07:20:36;100045.47;;;-3.78;92.58
53689;BME280;39583;54.682;30.662;2023-02-10T07:23:03;100041.88;;;-3.42;91.50
53689;BME280;39583;54.682;30.662;2023-02-10T07:25:29;100032.09;;;-3.07;90.58
53689;BME280;39583;54.682;30.662;2023-02-10T07:27:55;100031.88;;;-2.81;89.85
53689;BME280;39583;54.682;30.662;2023-02-10T07:30:21;100031.38;;;-2.64;89.29
53689;BME280;39583;54.682;30.662;2023-02-10T07:32:47;100015.28;;;-2.61;88.68
53689;BME280;39583;54.682;30.662;2023-02-10T07:35:13;100018.03;;;-2.51;88.28
53689;BME280;39583;54.682;30.662;2023-02-10T07:37:40;99998.50;;;-2.49;87.99
53689;BME280;39583;54.682;30.662;2023-02-10T07:40:07;100009.03;;;-2.49;87.77
53689;BME280;39583;54.682;30.662;2023-02-10T07:42:33;100003.69;;;-2.58;87.10
53689;BME280;39583;54.682;30.662;2023-02-10T07:45:25;100002.88;;;-2.70;87.13
53689;BME280;39583;54.682;30.662;2023-02-10T07:47:57;100008.72;;;-2.78;86.92
53689;BME280;39583;54.682;30.662;2023-02-10T07:50:24;99989.72;;;-2.92;86.96
53689;BME280;39583;54.682;30.662;2023-02-10T07:52:51;100009.00;;;-2.92;86.85
53689;BME280;39583;54.682;30.662;2023-02-10T07:55:18;100011.16;;;-2.97;86.87
53689;BME280;39583;54.682;30.662;2023-02-10T07:57:44;100012.22;;;-3.00;87.25
53689;BME280;39583;54.682;30.662;2023-02-10T08:00:11;100004.44;;;-3.01;86.71
53689;BME280;39583;54.682;30.662;2023-02-10T08:02:41;100004.56;;;-3.03;86.83
53689;BME280;39583;54.682;30.662;2023-02-10T08:05:08;100003.97;;;-3.06;86.73
53689;BME280;39583;54.682;30.662;2023-02-10T08:07:35;100007.31;;;-3.04;86.63
53689;BME280;39583;54.682;30.662;2023-02-10T08:10:01;100008.16;;;-3.04;86.55
53689;BME280;39583;54.682;30.662;2023-02-10T08:12:28;100003.00;;;-2.94;87.23
53689;BME280;39583;54.682;30.662;2023-02-10T08:14:54;100009.94;;;-2.82;86.96
53689;BME280;39583;54.682;30.662;2023-02-10T08:17:20;100000.81;;;-2.67;87.01
53689;BME280;39583;54.682;30.662;2023-02-10T08:19:46;100001.50;;;-2.53;86.60
53689;BME280;39583;54.682;30.662;2023-02-10T08:22:12;100004.38;;;-2.45;86.09
53689;BME280;39583;54.682;30.662;2023-02-10T08:24:38;100004.94;;;-2.30;86.20
53689;BME280;39583;54.682;30.662;2023-02-10T08:27:04;99997.56;;;-2.16;85.83
53689;BME280;39583;54.682;30.662;2023-02-10T09:50:58;99881.69;;;-0.37;78.49
53689;BME280;39583;54.682;30.662;2023-02-10T09:53:28;99861.75;;;-0.32;78.21
53689;BME280;39583;54.682;30.662;2023-02-10T09:56:01;99856.84;;;-0.17;77.96
53689;BME280;39583;54.682;30.662;2023-02-10T09:58:39;99873.41;;;-0.05;77.68
53689;BME280;39583;54.682;30.662;2023-02-10T10:04:04;99870.63;;;0.06;77.22
53689;BME280;39583;54.682;30.662;2023-02-10T10:06:35;99864.88;;;0.11;77.07
53689;BME280;39583;54.682;30.662;2023-02-10T10:11:49;99858.97;;;0.36;76.87
53689;BME280;39583;54.682;30.662;2023-02-10T10:14:26;99854.50;;;0.37;76.22
53689;BME280;39583;54.682;30.662;2023-02-10T10:31:41;99846.41;;;-0.28;75.82
53689;BME280;39583;54.682;30.662;2023-02-10T10:34:16;99848.53;;;-0.41;76.04
53689;BME280;39583;54.682;30.662;2023-02-10T10:36:51;99848.56;;;-0.51;76.15
53689;BME280;39583;54.682;30.662;2023-02-10T10:39:33;99842.00;;;-0.56;76.25
53689;BME280;39583;54.682;30.662;2023-02-10T10:42:07;99840.91;;;-0.64;76.06
53689;BME280;39583;54.682;30.662;2023-02-10T10:44:38;99841.03;;;-0.65;75.98
53689;BME280;39583;54.682;30.662;2023-02-10T10:47:19;99849.06;;;-0.67;76.49
53689;BME280;39583;54.682;30.662;2023-02-10T10:49:46;99853.56;;;-0.77;76.40
53689;BME280;39583;54.682;30.662;2023-02-10T10:52:33;99864.97;;;-0.76;76.42
53689;BME280;39583;54.682;30.662;2023-02-10T10:55:19;99864.81;;;-0.75;76.80
53689;BME280;39583;54.682;30.662;2023-02-10T10:57:47;99847.13;;;-0.84;76.69
53689;BME280;39583;54.682;30.662;2023-02-10T11:00:22;99866.06;;;-0.69;76.74
53689;BME280;39583;54.682;30.662;2023-02-10T11:02:59;99875.41;;;-0.75;76.62
53689;BME280;39583;54.682;30.662;2023-02-10T11:05:37;99860.66;;;-0.77;76.56
53689;BME280;39583;54.682;30.662;2023-02-10T11:08:05;99867.88;;;-0.70;76.99
53689;BME280;39583;54.682;30.662;2023-02-10T11:10:59;99866.19;;;-0.71;77.03
53689;BME280;39583;54.682;30.662;2023-02-10T11:13:28;99881.66;;;-0.66;77.43
53689;BME280;39583;54.682;30.662;2023-02-10T11:16:05;99858.69;;;-0.75;77.21
53689;BME280;39583;54.682;30.662;2023-02-10T11:18:36;99874.16;;;-0.61;77.10
53689;BME280;39583;54.682;30.662;2023-02-10T11:21:07;99871.78;;;-0.64;77.03
53689;BME280;39583;54.682;30.662;2023-02-10T11:23:59;99869.97;;;-0.64;77.11
53689;BME280;39583;54.682;30.662;2023-02-10T11:26:26;99868.00;;;-0.71;76.77
53689;BME280;39583;54.682;30.662;2023-02-10T11:28:54;99867.72;;;-0.68;76.44
53689;BME280;39583;54.682;30.662;2023-02-10T11:31:34;99854.38;;;-0.67;77.00
53689;BME280;39583;54.682;30.662;2023-02-10T11:34:23;99869.25;;;-0.66;76.79
53689;BME280;39583;54.682;30.662;2023-02-10T11:36:51;99867.34;;;-0.64;77.43
53689;BME280;39583;54.682;30.662;2023-02-10T11:39:22;99866.38;;;-0.63;77.19
53689;BME280;39583;54.682;30.662;2023-02-10T11:41:50;99856.47;;;-0.61;77.51
53689;BME280;39583;54.682;30.662;2023-02-10T11:44:28;99861.34;;;-0.56;77.24
53689;BME280;39583;54.682;30.662;2023-02-10T11:47:02;99849.53;;;-0.52;77.25
53689;BME280;39583;54.682;30.662;2023-02-10T11:49:29;99837.81;;;-0.59;77.41
53689;BME280;39583;54.682;30.662;2023-02-10T11:52:00;99851.84;;;-0.39;77.85
53689;BME280;39583;54.682;30.662;2023-02-10T11:54:27;99849.34;;;-0.31;77.59
53689;BME280;39583;54.682;30.662;2023-02-10T12:03:18;99849.91;;;-0.27;77.09
53689;BME280;39583;54.682;30.662;2023-02-10T12:09:11;99840.16;;;-0.27;77.06
53689;BME280;39583;54.682;30.662;2023-02-10T12:17:37;99852.69;;;-0.29;76.07
53689;BME280;39583;54.682;30.662;2023-02-10T12:20:27;99841.56;;;-0.23;76.20
53689;BME280;39583;54.682;30.662;2023-02-10T12:25:52;99851.84;;;-0.20;76.35
53689;BME280;39583;54.682;30.662;2023-02-10T12:28:38;99838.63;;;-0.20;75.82
53689;BME280;39583;54.682;30.662;2023-02-10T12:36:25;99863.97;;;-0.27;75.97
53689;BME280;39583;54.682;30.662;2023-02-10T12:41:26;99881.66;;;-0.27;76.38
53689;BME280;39583;54.682;30.662;2023-02-10T12:46:25;99886.00;;;-0.46;76.48
53689;BME280;39583;54.682;30.662;2023-02-10T12:49:14;99892.53;;;-0.40;76.95
53689;BME280;39583;54.682;30.662;2023-02-10T12:54:50;99902.25;;;-0.41;77.20
53689;BME280;39583;54.682;30.662;2023-02-10T12:57:27;99892.66;;;-0.42;76.92
53689;BME280;39583;54.682;30.662;2023-02-10T13:00:16;99898.25;;;-0.45;76.89
53689;BME280;39583;54.682;30.662;2023-02-10T13:02:49;99908.28;;;-0.48;77.37
53689;BME280;39583;54.682;30.662;2023-02-10T13:05:25;99916.19;;;-0.48;77.23
53689;BME280;39583;54.682;30.662;2023-02-10T13:08:00;99917.44;;;-0.52;77.69
53689;BME280;39583;54.682;30.662;2023-02-10T13:10:39;99910.38;;;-0.52;77.83
53689;BME280;39583;54.682;30.662;2023-02-10T13:13:15;99916.63;;;-0.43;78.08
53689;BME280;39583;54.682;30.662;2023-02-10T13:15:58;99913.81;;;-0.42;77.66
53689;BME280;39583;54.682;30.662;2023-02-10T13:18:29;99909.38;;;-0.41;77.36
53689;BME280;39583;54.682;30.662;2023-02-10T13:21:01;99895.88;;;-0.38;77.58
53689;BME280;39583;54.682;30.662;2023-02-10T13:23:48;99899.09;;;-0.25;77.93
53689;BME280;39583;54.682;30.662;2023-02-10T13:29:21;99913.41;;;-0.18;77.37
53689;BME280;39583;54.682;30.662;2023-02-10T13:34:43;99902.69;;;-0.16;76.94
53689;BME280;39583;54.682;30.662;2023-02-10T13:37:18;99902.97;;;-0.10;77.17
53689;BME280;39583;54.682;30.662;2023-02-10T13:40:22;99897.09;;;-0.04;77.09
53689;BME280;39583;54.682;30.662;2023-02-10T13:42:57;99897.97;;;-0.13;76.79
53689;BME280;39583;54.682;30.662;2023-02-10T13:45:29;99911.03;;;-0.02;76.92
53689;BME280;39583;54.682;30.662;2023-02-10T13:53:00;99911.16;;;-0.03;76.73
53689;BME280;39583;54.682;30.662;2023-02-10T13:55:46;99911.84;;;-0.01;76.30
53689;BME280;39583;54.682;30.662;2023-02-10T14:00:50;99913.56;;;0.00;76.25
53689;BME280;39583;54.682;30.662;2023-02-10T14:03:26;99912.28;;;-0.06;76.36
53689;BME280;39583;54.682;30.662;2023-02-10T14:11:46;99919.41;;;-0.16;76.72
53689;BME280;39583;54.682;30.662;2023-02-10T14:14:03;99905.06;;;-0.23;76.65
53689;BME280;39583;54.682;30.662;2023-02-10T14:16:38;99887.22;;;-0.31;76.85
53689;BME280;39583;54.682;30.662;2023-02-10T14:21:46;99910.75;;;-0.27;76.65
53689;BME280;39583;54.682;30.662;2023-02-10T14:24:16;99922.03;;;-0.16;76.83
53689;BME280;39583;54.682;30.662;2023-02-10T14:26:44;99932.91;;;-0.19;76.88
53689;BME280;39583;54.682;30.662;2023-02-10T14:29:18;99923.44;;;-0.21;77.43
53689;BME280;39583;54.682;30.662;2023-02-10T14:31:51;99921.94;;;-0.24;77.10
53689;BME280;39583;54.682;30.662;2023-02-10T14:34:21;99927.63;;;-0.28;77.12
53689;BME280;39583;54.682;30.662;2023-02-10T14:36:52;99938.34;;;-0.30;77.36
53689;BME280;39583;54.682;30.662;2023-02-10T14:39:21;99940.88;;;-0.38;77.18
53689;BME280;39583;54.682;30.662;2023-02-10T14:41:48;99937.66;;;-0.51;77.09
53689;BME280;39583;54.682;30.662;2023-02-10T14:44:30;99935.25;;;-0.64;77.12
53689;BME280;39583;54.682;30.662;2023-02-10T14:46:59;99934.78;;;-0.79;77.19
53689;BME280;39583;54.682;30.662;2023-02-10T14:49:25;99940.31;;;-0.92;77.56
53689;BME280;39583;54.682;30.662;2023-02-10T14:51:51;99912.44;;;-1.15;78.06
53689;BME280;39583;54.682;30.662;2023-02-10T14:54:24;99944.16;;;-1.05;77.97
53689;BME280;39583;54.682;30.662;2023-02-10T14:59:22;99944.81;;;-1.23;78.50
53689;BME280;39583;54.682;30.662;2023-02-10T15:01:49;99936.59;;;-1.29;78.21
53689;BME280;39583;54.682;30.662;2023-02-10T15:04:17;99938.91;;;-1.36;78.69
53689;BME280;39583;54.682;30.662;2023-02-10T15:06:46;99931.53;;;-1.42;78.63
53689;BME280;39583;54.682;30.662;2023-02-10T15:09:22;99946.53;;;-1.42;79.15
53689;BME280;39583;54.682;30.662;2023-02-10T15:11:53;99940.66;;;-1.46;79.09
53689;BME280;39583;54.682;30.662;2023-02-10T15:17:35;99940.94;;;-1.49;79.35
53689;BME280;39583;54.682;30.662;2023-02-10T15:22:42;99957.31;;;-1.55;79.31
53689;BME280;39583;54.682;30.662;2023-02-10T15:27:54;99944.31;;;-1.68;79.55
53689;BME280;39583;54.682;30.662;2023-02-10T15:30:23;99963.16;;;-1.52;79.72
53689;BME280;39583;54.682;30.662;2023-02-10T15:32:54;99975.53;;;-1.52;79.54
53689;BME280;39583;54.682;30.662;2023-02-10T15:35:21;99962.47;;;-1.54;79.50
53689;BME280;39583;54.682;30.662;2023-02-10T15:37:53;99936.69;;;-1.61;79.64
53689;BME280;39583;54.682;30.662;2023-02-10T15:40:29;99961.50;;;-1.53;79.31
53689;BME280;39583;54.682;30.662;2023-02-10T15:43:03;99954.69;;;-1.55;79.50
53689;BME280;39583;54.682;30.662;2023-02-10T15:45:30;99966.22;;;-1.56;79.60
53689;BME280;39583;54.682;30.662;2023-02-10T15:48:06;99966.91;;;-1.54;79.67
53689;BME280;39583;54.682;30.662;2023-02-10T15:50:37;99969.78;;;-1.57;79.63
53689;BME280;39583;54.682;30.662;2023-02-10T15:53:05;99977.28;;;-1.62;79.33
53689;BME280;39583;54.682;30.662;2023-02-10T15:55:36;99968.06;;;-1.68;79.52
53689;BME280;39583;54.682;30.662;2023-02-10T15:58:03;99969.28;;;-1.72;79.66
53689;BME280;39583;54.682;30.662;2023-02-10T16:00:32;99969.97;;;-1.70;80.15
53689;BME280;39583;54.682;30.662;2023-02-10T16:02:58;99974.06;;;-1.66;80.10
53689;BME280;39583;54.682;30.662;2023-02-10T16:05:25;99982.56;;;-1.62;79.95
53689;BME280;39583;54.682;30.662;2023-02-10T16:07:51;99983.25;;;-1.60;79.76
53689;BME280;39583;54.682;30.662;2023-02-10T16:10:24;99989.25;;;-1.58;79.77
53689;BME280;39583;54.682;30.662;2023-02-10T16:12:51;99987.56;;;-1.59;79.87
53689;BME280;39583;54.682;30.662;2023-02-10T16:15:21;99994.28;;;-1.55;80.26
53689;BME280;39583;54.682;30.662;2023-02-10T16:17:50;99995.69;;;-1.51;80.09
53689;BME280;39583;54.682;30.662;2023-02-10T16:20:24;99991.13;;;-1.49;80.03
53689;BME280;39583;54.682;30.662;2023-02-10T16:22:50;100004.44;;;-1.51;79.57
53689;BME280;39583;54.682;30.662;2023-02-10T16:25:18;99997.75;;;-1.55;79.57
53689;BME280;39583;54.682;30.662;2023-02-10T16:27:45;100014.25;;;-1.62;79.63
53689;BME280;39583;54.682;30.662;2023-02-10T16:30:20;99999.28;;;-1.73;79.55
53689;BME280;39583;54.682;30.662;2023-02-10T16:32:46;100008.66;;;-1.69;79.95
53689;BME280;39583;54.682;30.662;2023-02-10T16:35:13;100020.28;;;-1.71;79.57
53689;BME280;39583;54.682;30.662;2023-02-10T16:37:39;100013.47;;;-1.74;79.57
53689;BME280;39583;54.682;30.662;2023-02-10T16:40:06;100022.22;;;-1.73;79.82
53689;BME280;39583;54.682;30.662;2023-02-10T16:42:33;100026.09;;;-1.77;79.86
53689;BME280;39583;54.682;30.662;2023-02-10T16:44:59;100028.72;;;-1.77;80.18
53689;BME280;39583;54.682;30.662;2023-02-10T16:47:25;100034.44;;;-1.72;79.86
53689;BME280;39583;54.682;30.662;2023-02-10T16:49:51;100033.59;;;-1.73;80.06
53689;BME280;39583;54.682;30.662;2023-02-10T16:52:21;100023.53;;;-1.68;80.02
53689;BME280;39583;54.682;30.662;2023-02-10T16:54:49;100023.97;;;-1.63;79.94
53689;BME280;39583;54.682;30.662;2023-02-10T16:57:17;100035.81;;;-1.57;79.72
53689;BME280;39583;54.682;30.662;2023-02-10T16:59:43;100034.59;;;-1.53;79.65
53689;BME280;39583;54.682;30.662;2023-02-10T17:02:10;100036.13;;;-1.51;79.37
53689;BME280;39583;54.682;30.662;2023-02-10T17:04:36;100029.75;;;-1.48;79.78
53689;BME280;39583;54.682;30.662;2023-02-10T17:07:02;100039.94;;;-1.43;79.58
53689;BME280;39583;54.682;30.662;2023-02-10T17:09:28;100048.31;;;-1.38;79.61
53689;BME280;39583;54.682;30.662;2023-02-10T17:11:54;100040.00;;;-1.34;79.21
53689;BME280;39583;54.682;30.662;2023-02-10T17:14:21;100055.56;;;-1.31;79.50
53689;BME280;39583;54.682;30.662;2023-02-10T17:16:49;100055.56;;;-1.31;79.10
53689;BME280;39583;54.682;30.662;2023-02-10T17:19:18;100037.63;;;-1.37;79.64
53689;BME280;39583;54.682;30.662;2023-02-10T17:21:44;100059.59;;;-1.15;79.19
53689;BME280;39583;54.682;30.662;2023-02-10T17:24:11;100051.69;;;-1.06;79.33
53689;BME280;39583;54.682;30.662;2023-02-10T17:26:38;100041.84;;;-1.04;79.50
53689;BME280;39583;54.682;30.662;2023-02-10T17:29:14;100056.78;;;-0.93;79.01
53689;BME280;39583;54.682;30.662;2023-02-10T17:31:42;100056.78;;;-0.93;78.69
53689;BME280;39583;54.682;30.662;2023-02-10T17:34:10;100050.06;;;-0.97;78.54
53689;BME280;39583;54.682;30.662;2023-02-10T17:36:36;100052.28;;;-1.02;78.67
53689;BME280;39583;54.682;30.662;2023-02-10T17:39:03;100054.03;;;-1.12;78.32
53689;BME280;39583;54.682;30.662;2023-02-10T17:41:55;100057.78;;;-1.15;78.79
53689;BME280;39583;54.682;30.662;2023-02-10T17:44:25;100063.31;;;-1.18;78.78
53689;BME280;39583;54.682;30.662;2023-02-10T17:46:55;100065.13;;;-1.19;79.03
53689;BME280;39583;54.682;30.662;2023-02-10T17:49:28;100069.13;;;-1.24;78.72
53689;BME280;39583;54.682;30.662;2023-02-10T17:51:55;100061.72;;;-1.30;79.07
53689;BME280;39583;54.682;30.662;2023-02-10T17:54:22;100062.88;;;-1.23;79.00
53689;BME280;39583;54.682;30.662;2023-02-10T17:56:48;100065.13;;;-1.19;79.30
53689;BME280;39583;54.682;30.662;2023-02-10T17:59:15;100052.63;;;-1.16;79.03
53689;BME280;39583;54.682;30.662;2023-02-10T18:01:42;100061.69;;;-1.09;78.73
53689;BME280;39583;54.682;30.662;2023-02-10T18:04:11;100048.56;;;-1.21;78.75
53689;BME280;39583;54.682;30.662;2023-02-10T18:06:39;100067.94;;;-1.10;78.63
53689;BME280;39583;54.682;30.662;2023-02-10T18:09:05;100067.94;;;-1.10;78.68
53689;BME280;39583;54.682;30.662;2023-02-10T18:11:32;100070.16;;;-1.15;78.91
53689;BME280;39583;54.682;30.662;2023-02-10T18:13:58;100050.06;;;-1.28;78.75
53689;BME280;39583;54.682;30.662;2023-02-10T18:16:25;100073.78;;;-1.16;78.67
53689;BME280;39583;54.682;30.662;2023-02-10T18:18:51;100058.84;;;-1.17;78.60
53689;BME280;39583;54.682;30.662;2023-02-10T18:21:21;100077.34;;;-1.17;78.83
53689;BME280;39583;54.682;30.662;2023-02-10T18:23:49;100076.34;;;-1.26;78.77
53689;BME280;39583;54.682;30.662;2023-02-10T18:26:16;100065.56;;;-1.34;78.49
53689;BME280;39583;54.682;30.662;2023-02-10T18:28:42;100075.97;;;-1.42;78.84
53689;BME280;39583;54.682;30.662;2023-02-10T18:31:09;100070.88;;;-1.55;78.54
53689;BME280;39583;54.682;30.662;2023-02-10T18:33:44;100075.09;;;-1.64;79.17
53689;BME280;39583;54.682;30.662;2023-02-10T18:36:14;100070.31;;;-1.70;79.44
53689;BME280;39583;54.682;30.662;2023-02-10T18:38:40;100076.25;;;-1.77;79.38
53689;BME280;39583;54.682;30.662;2023-02-10T18:41:06;100070.13;;;-1.78;79.83
53689;BME280;39583;54.682;30.662;2023-02-10T18:43:33;100069.72;;;-1.73;79.74
53689;BME280;39583;54.682;30.662;2023-02-10T18:45:59;100078.63;;;-1.74;79.71
53689;BME280;39583;54.682;30.662;2023-02-10T18:48:25;100076.25;;;-1.77;79.45
